createdAt,value
2017-09-24T00:01:09.287Z,16.73
2017-09-24T00:03:38.980Z,12.45
2017-09-24T00:06:09.304Z,12.97
2017-09-24T00:08:39.659Z,13.07
2017-09-24T00:11:09.922Z,14.25
2017-09-24T00:13:39.895Z,17.58
2017-09-24T00:16:09.960Z,14.02
2017-09-24T00:18:39.635Z,13.03
2017-09-24T00:21:10.128Z,14.60
2017-09-24T00:23:40.222Z,14.50
2017-09-24T00:26:10.144Z,12.53
2017-09-24T00:28:40.262Z,14.13
2017-09-24T00:31:10.405Z,13.30
2017-09-24T00:33:40.779Z,14.85
2017-09-24T00:36:10.702Z,15.32
2017-09-24T00:38:41.884Z,16.70
2017-09-24T00:41:12.200Z,13.20
2017-09-24T00:43:42.434Z,13.05
2017-09-24T00:46:12.892Z,15.50
2017-09-24T00:48:42.545Z,13.82
2017-09-24T00:51:13.155Z,13.20
2017-09-24T00:53:43.585Z,12.90
2017-09-24T00:56:13.314Z,14.52
2017-09-24T00:58:43.082Z,15.27
2017-09-24T01:01:12.759Z,13.98
2017-09-24T01:03:42.390Z,17.60
2017-09-24T01:06:12.303Z,13.23
2017-09-24T01:08:42.862Z,13.20
2017-09-24T01:11:12.611Z,16.27
2017-09-24T01:13:43.266Z,12.35
2017-09-24T01:16:13.010Z,12.98
2017-09-24T01:18:42.833Z,12.65
2017-09-24T01:21:13.655Z,11.30
2017-09-24T01:23:44.257Z,13.32
2017-09-24T01:26:14.837Z,15.82
2017-09-24T01:28:45.127Z,11.88
2017-09-24T01:31:15.382Z,12.40
2017-09-24T01:33:45.257Z,12.27
2017-09-24T01:36:15.622Z,12.45
2017-09-24T01:38:45.525Z,18.45
2017-09-24T01:41:15.590Z,19.23
2017-09-24T01:43:45.971Z,14.80
2017-09-24T01:46:15.577Z,15.80
2017-09-24T01:48:45.972Z,12.85
2017-09-24T01:51:16.101Z,13.07
2017-09-24T01:53:45.753Z,13.95
2017-09-24T01:56:16.119Z,14.23
2017-09-24T01:58:45.979Z,12.30
2017-09-24T02:01:15.570Z,11.88
2017-09-24T02:03:45.116Z,14.90
2017-09-24T02:06:16.072Z,13.40
2017-09-24T02:08:46.165Z,12.80
2017-09-24T02:11:15.855Z,13.75
2017-09-24T02:13:46.403Z,12.82
2017-09-24T02:16:16.765Z,14.45
2017-09-24T02:18:47.668Z,12.33
2017-09-24T02:21:18.792Z,13.30
2017-09-24T02:23:48.791Z,15.13
2017-09-24T02:26:18.725Z,14.13
2017-09-24T02:28:49.163Z,11.85
2017-09-24T02:31:19.150Z,13.82
2017-09-24T02:33:49.243Z,11.10
2017-09-24T02:36:19.245Z,15.15
2017-09-24T02:38:49.301Z,11.05
2017-09-24T02:41:19.759Z,12.80
2017-09-24T02:43:49.792Z,11.30
2017-09-24T02:46:19.857Z,12.00
2017-09-24T02:48:50.139Z,13.93
2017-09-24T02:51:21.073Z,12.93
2017-09-24T02:53:50.637Z,13.05
2017-09-24T02:56:20.365Z,11.77
2017-09-24T02:58:49.933Z,13.75
2017-09-24T03:01:19.776Z,14.25
2017-09-24T03:03:50.982Z,14.48
2017-09-24T03:06:21.504Z,13.43
2017-09-24T03:08:52.149Z,12.40
2017-09-24T03:11:22.085Z,14.05
2017-09-24T03:13:52.818Z,12.70
2017-09-24T03:16:22.691Z,14.45
2017-09-24T03:18:53.456Z,14.07
2017-09-24T03:21:23.724Z,12.07
2017-09-24T03:23:53.600Z,13.95
2017-09-24T03:26:23.135Z,16.17
2017-09-24T03:28:53.023Z,12.70
2017-09-24T03:31:22.632Z,15.05
2017-09-24T03:33:52.575Z,15.38
2017-09-24T03:36:22.485Z,13.13
2017-09-24T03:38:52.523Z,13.82
2017-09-24T03:41:22.971Z,11.85
2017-09-24T03:43:52.823Z,15.60
2017-09-24T03:46:22.727Z,12.02
2017-09-24T03:48:53.265Z,12.77
2017-09-24T03:51:23.328Z,14.77
2017-09-24T03:53:54.268Z,12.90
2017-09-24T03:56:24.284Z,13.88
2017-09-24T03:58:54.162Z,12.00
2017-09-24T04:01:24.405Z,15.10
2017-09-24T04:03:54.519Z,15.77
2017-09-24T04:06:24.315Z,14.07
2017-09-24T04:08:55.471Z,14.70
2017-09-24T04:11:25.335Z,16.30
2017-09-24T04:13:55.224Z,14.70
2017-09-24T04:16:25.013Z,16.17
2017-09-24T04:18:54.856Z,13.20
2017-09-24T04:21:25.536Z,12.32
2017-09-24T04:23:55.519Z,14.30
2017-09-24T04:26:26.356Z,14.10
2017-09-24T04:28:56.541Z,11.40
2017-09-24T04:31:26.060Z,12.68
2017-09-24T04:33:55.928Z,12.95
2017-09-24T04:36:25.505Z,13.52
2017-09-24T04:38:55.366Z,13.80
2017-09-24T04:41:25.732Z,14.40
2017-09-24T04:43:56.121Z,11.15
2017-09-24T04:46:25.796Z,18.08
2017-09-24T04:48:55.723Z,16.30
2017-09-24T04:51:25.519Z,15.45
2017-09-24T04:53:56.225Z,16.05
2017-09-24T04:56:26.987Z,16.65
2017-09-24T04:58:57.427Z,14.68
2017-09-24T05:01:27.888Z,14.00
2017-09-24T05:03:58.037Z,13.27
2017-09-24T05:06:28.638Z,13.03
2017-09-24T05:08:58.719Z,13.70
2017-09-24T05:11:28.295Z,12.20
2017-09-24T05:13:59.063Z,13.73
2017-09-24T05:16:28.935Z,14.35
2017-09-24T05:18:58.679Z,13.30
2017-09-24T05:21:28.702Z,12.13
2017-09-24T05:23:58.255Z,10.70
2017-09-24T05:26:27.802Z,11.57
2017-09-24T05:28:57.743Z,12.02
2017-09-24T05:31:27.261Z,12.70
2017-09-24T05:33:56.827Z,11.02
2017-09-24T05:36:27.179Z,10.43
2017-09-24T05:38:56.780Z,11.20
2017-09-24T05:41:26.666Z,9.95
2017-09-24T05:43:56.710Z,10.17
2017-09-24T05:46:26.286Z,9.98
2017-09-24T05:48:57.222Z,11.00
2017-09-24T05:51:27.960Z,10.68
2017-09-24T05:53:57.759Z,14.40
2017-09-24T05:56:27.840Z,11.30
2017-09-24T05:58:57.731Z,11.57
2017-09-24T06:01:27.401Z,10.77
2017-09-24T06:03:58.055Z,12.40
2017-09-24T06:06:27.667Z,10.00
2017-09-24T06:08:58.329Z,15.57
2017-09-24T06:11:28.199Z,12.87
2017-09-24T06:13:57.973Z,13.43
2017-09-24T06:16:28.020Z,10.63
2017-09-24T06:18:59.168Z,10.15
2017-09-24T06:21:29.869Z,10.02
2017-09-24T06:23:59.799Z,9.52
2017-09-24T06:26:29.977Z,10.50
2017-09-24T06:29:00.886Z,9.55
2017-09-24T06:31:31.301Z,13.85
2017-09-24T06:34:01.317Z,10.48
2017-09-24T06:36:31.719Z,13.05
2017-09-24T06:39:01.310Z,10.85
2017-09-24T06:41:31.252Z,11.88
2017-09-24T06:44:00.807Z,12.15
2017-09-24T06:46:30.360Z,9.52
2017-09-24T06:49:00.363Z,9.23
2017-09-24T06:51:30.250Z,7.95
2017-09-24T06:54:00.645Z,7.28
2017-09-24T06:56:31.016Z,7.07
2017-09-24T06:59:01.003Z,9.10
2017-09-24T07:01:31.602Z,7.75
2017-09-24T07:04:01.946Z,7.40
2017-09-24T07:06:32.332Z,7.47
2017-09-24T07:09:02.472Z,6.97
2017-09-24T07:11:32.158Z,8.77
2017-09-24T07:14:03.964Z,9.65
2017-09-24T07:16:36.816Z,10.38
2017-09-24T07:19:07.062Z,8.40
2017-09-24T07:21:37.840Z,9.02
2017-09-24T07:24:08.074Z,9.00
2017-09-24T07:26:38.678Z,10.55
2017-09-24T07:29:10.194Z,9.02
2017-09-24T07:31:40.176Z,8.90
2017-09-24T07:34:10.536Z,8.82
2017-09-24T07:36:41.660Z,10.45
2017-09-24T07:39:11.220Z,15.13
2017-09-24T07:41:41.627Z,11.07
2017-09-24T07:44:11.424Z,10.63
2017-09-24T07:46:41.091Z,9.43
2017-09-24T07:49:11.015Z,8.90
2017-09-24T07:51:40.663Z,10.90
2017-09-24T07:54:10.247Z,8.30
2017-09-24T07:56:40.138Z,8.10
2017-09-24T07:59:09.720Z,8.60
2017-09-24T08:01:40.091Z,10.57
2017-09-24T08:04:09.692Z,10.15
2017-09-24T08:06:39.347Z,11.35
2017-09-24T08:09:08.938Z,7.78
2017-09-24T08:11:39.396Z,9.63
2017-09-24T08:14:10.075Z,10.02
2017-09-24T08:16:40.067Z,7.80
2017-09-24T08:19:10.527Z,8.40
2017-09-24T08:21:41.029Z,9.30
2017-09-24T08:24:10.830Z,10.70
2017-09-24T08:26:40.851Z,10.82
2017-09-24T08:29:10.575Z,9.63
2017-09-24T08:31:40.344Z,10.43
2017-09-24T08:34:10.603Z,10.70
2017-09-24T08:36:40.330Z,10.07
2017-09-24T08:39:10.445Z,11.68
2017-09-24T08:41:39.977Z,10.10
2017-09-24T08:44:09.521Z,9.90
2017-09-24T08:46:40.239Z,10.40
2017-09-24T08:49:10.670Z,10.80
2017-09-24T08:51:41.163Z,14.87
2017-09-24T08:54:11.172Z,11.73
2017-09-24T08:56:40.793Z,10.38
2017-09-24T08:59:10.500Z,11.73
2017-09-24T09:01:40.047Z,10.82
2017-09-24T09:04:10.376Z,12.25
2017-09-24T09:06:40.975Z,11.70
2017-09-24T09:09:11.331Z,10.80
2017-09-24T09:11:41.614Z,11.38
2017-09-24T09:14:11.228Z,10.13
2017-09-24T09:16:41.659Z,11.03
2017-09-24T09:19:11.345Z,12.13
2017-09-24T09:21:46.197Z,12.88
2017-09-24T09:24:16.134Z,15.23
2017-09-24T09:26:46.772Z,15.60
2017-09-24T09:29:17.442Z,15.60
2017-09-24T09:31:47.347Z,16.20
2017-09-24T09:34:25.800Z,15.57
2017-09-24T09:36:55.744Z,13.90
2017-09-24T09:39:25.452Z,15.85
2017-09-24T09:41:55.004Z,15.93
2017-09-24T09:44:33.395Z,17.65
2017-09-24T09:47:12.555Z,16.05
2017-09-24T09:49:42.468Z,15.97
2017-09-24T09:52:12.252Z,15.80
2017-09-24T09:54:43.352Z,15.63
2017-09-24T09:57:13.019Z,17.55
2017-09-24T09:59:43.347Z,18.67
2017-09-24T10:02:13.275Z,19.92
2017-09-24T10:04:42.819Z,20.52
2017-09-24T10:07:21.449Z,18.80
2017-09-24T10:10:16.934Z,19.77
2017-09-24T10:12:46.639Z,18.65
2017-09-24T10:15:16.695Z,24.40
2017-09-24T10:17:47.222Z,20.90
2017-09-24T10:20:17.776Z,19.92
2017-09-24T10:22:48.461Z,22.33
2017-09-24T10:25:19.521Z,21.23
2017-09-24T10:27:49.577Z,19.55
2017-09-24T10:30:30.226Z,20.08
2017-09-24T10:33:00.000Z,19.65
2017-09-24T10:35:29.954Z,17.30
2017-09-24T10:37:59.809Z,18.05
2017-09-24T10:40:30.501Z,17.98
2017-09-24T10:43:02.548Z,18.50
2017-09-24T10:45:32.135Z,18.05
2017-09-24T10:48:01.793Z,19.57
2017-09-24T10:50:32.215Z,18.85
2017-09-24T10:53:02.697Z,18.97
2017-09-24T10:55:32.403Z,19.05
2017-09-24T10:58:02.035Z,18.33
2017-09-24T11:00:32.686Z,22.23
2017-09-24T11:03:03.093Z,18.27
2017-09-24T11:05:32.794Z,17.53
2017-09-24T11:08:02.438Z,19.00
2017-09-24T11:10:32.953Z,19.65
2017-09-24T11:13:02.998Z,19.60
2017-09-24T11:15:33.060Z,20.33
2017-09-24T11:18:03.466Z,19.58
2017-09-24T11:20:33.148Z,18.50
2017-09-24T11:23:02.798Z,18.50
2017-09-24T11:25:32.383Z,19.15
2017-09-24T11:28:02.026Z,19.37
2017-09-24T11:30:31.651Z,18.55
2017-09-24T11:33:01.535Z,18.95
2017-09-24T11:35:31.134Z,17.42
2017-09-24T11:38:00.951Z,19.42
2017-09-24T11:40:30.597Z,20.12
2017-09-24T11:43:00.241Z,20.08
2017-09-24T11:45:30.673Z,19.60
2017-09-24T11:48:00.474Z,19.77
2017-09-24T11:50:30.958Z,19.00
2017-09-24T11:53:02.235Z,20.62
2017-09-24T11:55:32.208Z,17.73
2017-09-24T11:58:01.919Z,20.77
2017-09-24T12:00:31.605Z,16.25
2017-09-24T12:03:01.788Z,19.90
2017-09-24T12:05:32.124Z,16.52
2017-09-24T12:08:01.896Z,17.37
2017-09-24T12:10:31.451Z,18.90
2017-09-24T12:13:03.233Z,17.47
2017-09-24T12:15:33.453Z,17.00
2017-09-24T12:18:03.165Z,19.02
2017-09-24T12:20:32.930Z,17.30
2017-09-24T12:23:03.900Z,15.43
2017-09-24T12:25:33.782Z,16.48
2017-09-24T12:28:03.671Z,15.95
2017-09-24T12:30:33.291Z,16.40
2017-09-24T12:33:03.052Z,16.27
2017-09-24T12:35:33.608Z,16.50
2017-09-24T12:38:03.243Z,18.40
2017-09-24T12:40:33.539Z,18.07
2017-09-24T12:43:04.028Z,15.60
2017-09-24T12:45:34.480Z,16.15
2017-09-24T12:48:04.243Z,15.30
2017-09-24T12:50:33.892Z,16.95
2017-09-24T12:53:03.614Z,16.33
2017-09-24T12:55:34.497Z,17.92
2017-09-24T12:58:04.564Z,15.88
2017-09-24T13:00:34.305Z,16.83
2017-09-24T13:03:03.908Z,16.37
2017-09-24T13:05:33.834Z,17.00
2017-09-24T13:08:03.463Z,19.65
2017-09-24T13:10:33.823Z,17.02
2017-09-24T13:13:03.739Z,17.58
2017-09-24T13:15:33.530Z,19.62
2017-09-24T13:18:03.860Z,16.80
2017-09-24T13:20:34.471Z,18.00
2017-09-24T13:23:04.168Z,15.88
2017-09-24T13:25:34.661Z,15.90
2017-09-24T13:28:04.534Z,15.35
2017-09-24T13:30:34.067Z,14.63
2017-09-24T13:33:04.457Z,16.35
2017-09-24T13:35:34.728Z,17.90
2017-09-24T13:38:04.463Z,16.07
2017-09-24T13:40:34.448Z,16.23
2017-09-24T13:43:05.052Z,15.07
2017-09-24T13:45:35.539Z,16.12
2017-09-24T13:48:05.376Z,14.38
2017-09-24T13:50:35.334Z,15.02
2017-09-24T13:53:05.791Z,13.20
2017-09-24T13:55:35.701Z,16.10
2017-09-24T13:58:05.851Z,13.70
2017-09-24T14:00:35.729Z,13.80
2017-09-24T14:03:05.371Z,13.35
2017-09-24T14:05:36.268Z,12.45
2017-09-24T14:08:06.063Z,12.20
2017-09-24T14:10:36.177Z,13.38
2017-09-24T14:13:07.103Z,10.00
2017-09-24T14:15:36.684Z,10.50
2017-09-24T14:18:06.446Z,9.75
2017-09-24T14:20:38.049Z,10.85
2017-09-24T14:23:09.524Z,10.93
2017-09-24T14:25:40.602Z,11.52
2017-09-24T14:28:10.560Z,10.55
2017-09-24T14:30:40.272Z,12.10
2017-09-24T14:33:09.957Z,11.12
2017-09-24T14:35:42.555Z,11.15
2017-09-24T14:38:12.722Z,10.38
2017-09-24T14:40:42.530Z,10.35
2017-09-24T14:43:12.835Z,10.82
2017-09-24T14:45:42.486Z,10.30
2017-09-24T14:48:12.950Z,9.32
2017-09-24T14:50:42.958Z,13.27
2017-09-24T14:53:12.592Z,9.32
2017-09-24T14:55:42.202Z,9.32
2017-09-24T14:58:12.094Z,10.00
2017-09-24T15:00:41.799Z,9.03
2017-09-24T15:03:11.884Z,8.27
2017-09-24T15:05:41.999Z,8.23
2017-09-24T15:08:11.724Z,8.10
2017-09-24T15:10:41.543Z,8.75
2017-09-24T15:13:11.320Z,8.70
2017-09-24T15:15:41.755Z,8.43
2017-09-24T15:18:12.651Z,9.10
2017-09-24T15:20:42.421Z,8.15
2017-09-24T15:23:12.043Z,11.10
2017-09-24T15:25:42.237Z,8.80
2017-09-24T15:28:12.088Z,7.97
2017-09-24T15:30:41.896Z,10.70
2017-09-24T15:33:11.745Z,8.65
2017-09-24T15:35:42.234Z,7.78
2017-09-24T15:38:12.003Z,9.32
2017-09-24T15:40:43.543Z,8.50
2017-09-24T15:43:13.176Z,9.88
2017-09-24T15:45:43.634Z,8.95
2017-09-24T15:48:13.252Z,8.80
2017-09-24T15:50:42.949Z,9.35
2017-09-24T15:53:13.147Z,9.70
2017-09-24T15:55:43.345Z,11.32
2017-09-24T15:58:13.269Z,10.32
2017-09-24T16:00:43.709Z,9.35
2017-09-24T16:03:13.399Z,9.50
2017-09-24T16:05:43.098Z,9.50
2017-09-24T16:08:13.635Z,10.13
2017-09-24T16:10:44.112Z,11.52
2017-09-24T16:13:13.986Z,10.98
2017-09-24T16:15:47.077Z,10.82
2017-09-24T16:18:17.935Z,12.20
2017-09-24T16:20:47.853Z,10.20
2017-09-24T16:23:17.529Z,10.65
2017-09-24T16:25:47.217Z,12.57
2017-09-24T16:28:17.886Z,10.00
2017-09-24T16:30:51.272Z,10.18
2017-09-24T16:33:22.216Z,11.88
2017-09-24T16:35:52.501Z,11.00
2017-09-24T16:38:22.835Z,9.82
2017-09-24T16:40:52.484Z,10.30
2017-09-24T16:43:22.191Z,10.55
2017-09-24T16:45:52.001Z,10.15
2017-09-24T16:48:22.492Z,10.48
2017-09-24T16:50:53.201Z,9.15
2017-09-24T16:53:22.781Z,9.90
2017-09-24T16:57:12.807Z,9.57
2017-09-24T16:59:42.882Z,12.00
2017-09-24T17:02:14.622Z,11.07
2017-09-24T17:04:47.947Z,11.02
2017-09-24T17:07:18.372Z,10.10
2017-09-24T17:09:48.191Z,10.10
2017-09-24T17:12:19.274Z,9.85
2017-09-24T17:14:49.075Z,11.00
2017-09-24T17:17:19.877Z,10.73
2017-09-24T17:19:50.399Z,14.35
2017-09-24T17:22:21.275Z,16.95
2017-09-24T17:24:51.411Z,19.95
2017-09-24T17:27:22.527Z,15.27
2017-09-24T17:29:52.860Z,15.45
2017-09-24T17:32:22.911Z,13.95
2017-09-24T17:34:53.815Z,11.90
2017-09-24T17:37:23.854Z,11.57
2017-09-24T17:39:54.529Z,12.45
2017-09-24T17:42:24.648Z,14.20
2017-09-24T17:44:54.364Z,14.05
2017-09-24T17:47:24.322Z,14.07
2017-09-24T17:49:55.664Z,10.38
2017-09-24T17:52:25.709Z,12.85
2017-09-24T17:54:55.817Z,12.80
2017-09-24T17:57:26.486Z,10.68
2017-09-24T17:59:58.787Z,11.50
2017-09-24T18:02:30.199Z,10.75
2017-09-24T18:05:00.368Z,12.60
2017-09-24T18:07:30.693Z,10.63
2017-09-24T18:10:01.045Z,14.13
2017-09-24T18:12:31.386Z,11.20
2017-09-24T18:15:02.260Z,12.93
2017-09-24T18:17:32.663Z,10.40
2017-09-24T18:20:04.784Z,12.50
2017-09-24T18:22:34.858Z,14.77
2017-09-24T18:25:06.006Z,13.30
2017-09-24T18:27:36.173Z,12.18
2017-09-24T18:30:06.961Z,12.27
2017-09-24T18:32:38.270Z,10.93
2017-09-24T18:35:08.435Z,10.48
2017-09-24T18:37:38.715Z,12.18
2017-09-24T18:40:09.280Z,13.53
2017-09-24T18:42:39.295Z,12.82
2017-09-24T18:45:09.548Z,14.87
2017-09-24T18:47:41.308Z,10.93
2017-09-24T18:50:12.071Z,10.70
2017-09-24T18:52:42.353Z,11.10
2017-09-24T18:55:14.203Z,10.73
2017-09-24T18:57:44.213Z,11.68
2017-09-24T19:00:14.403Z,10.25
2017-09-24T19:02:44.394Z,11.95
2017-09-24T19:05:14.445Z,11.80
2017-09-24T19:07:46.007Z,12.93
2017-09-24T19:10:16.768Z,15.90
2017-09-24T19:12:46.752Z,11.43
2017-09-24T19:15:16.585Z,11.12
2017-09-24T19:17:46.596Z,11.20
2017-09-24T19:20:16.600Z,12.95
2017-09-24T19:22:47.751Z,10.18
2017-09-24T19:25:20.452Z,11.30
2017-09-24T19:27:50.897Z,11.98
2017-09-24T19:30:21.996Z,12.45
2017-09-24T19:32:52.253Z,15.70
2017-09-24T19:35:23.141Z,14.20
2017-09-24T19:37:53.354Z,16.33
2017-09-24T19:40:23.595Z,11.77
2017-09-24T19:42:53.772Z,14.05
2017-09-24T19:45:23.828Z,13.07
2017-09-24T19:47:54.301Z,18.60
2017-09-24T19:50:24.744Z,16.50
2017-09-24T19:54:15.173Z,14.57
2017-09-24T19:56:45.920Z,11.82
2017-09-24T19:59:15.688Z,13.73
2017-09-24T20:01:45.491Z,14.70
2017-09-24T20:04:16.518Z,12.52
2017-09-24T20:06:46.122Z,14.70
2017-09-24T20:09:16.861Z,17.00
2017-09-24T20:11:47.370Z,9.23
2017-09-24T20:14:17.750Z,10.15
2017-09-24T20:16:47.376Z,9.73
2017-09-24T20:19:17.350Z,9.00
2017-09-24T20:21:46.931Z,9.30
2017-09-24T20:24:16.564Z,10.38
2017-09-24T20:26:47.853Z,11.90
2017-09-24T20:29:18.861Z,11.83
2017-09-24T20:31:50.396Z,11.40
2017-09-24T20:34:20.043Z,13.57
2017-09-24T20:36:49.667Z,12.30
2017-09-24T20:39:19.744Z,12.40
2017-09-24T20:41:49.502Z,14.07
2017-09-24T20:44:20.061Z,11.18
2017-09-24T20:46:51.579Z,11.02
2017-09-24T20:49:21.533Z,10.97
2017-09-24T20:51:51.388Z,12.23
2017-09-24T20:54:21.631Z,11.35
2017-09-24T20:56:51.599Z,10.95
2017-09-24T20:59:21.192Z,8.90
2017-09-24T21:01:51.827Z,8.10
2017-09-24T21:04:22.074Z,9.68
2017-09-24T21:06:52.167Z,11.95
2017-09-24T21:09:22.990Z,9.88
2017-09-24T21:11:53.539Z,11.00
2017-09-24T21:14:24.930Z,7.90
2017-09-24T21:16:55.094Z,8.48
2017-09-24T21:19:26.819Z,9.63
2017-09-24T21:21:56.699Z,16.80
2017-09-24T21:24:27.461Z,14.90
2017-09-24T21:26:57.469Z,9.20
2017-09-24T21:29:27.297Z,10.43
2017-09-24T21:31:57.919Z,12.10
2017-09-24T21:34:27.894Z,11.50
2017-09-24T21:36:57.648Z,11.67
2017-09-24T21:39:27.835Z,10.90
2017-09-24T21:41:58.475Z,12.25
2017-09-24T21:44:29.204Z,9.55
2017-09-24T21:46:59.524Z,8.60
2017-09-24T21:49:29.356Z,12.40
2017-09-24T21:51:59.335Z,13.00
2017-09-24T21:54:30.680Z,9.40
2017-09-24T21:57:01.430Z,12.98
2017-09-24T21:59:31.604Z,10.63
2017-09-24T22:02:03.022Z,12.77
2017-09-24T22:04:33.157Z,14.10
2017-09-24T22:07:03.972Z,10.60
2017-09-24T22:09:34.574Z,13.20
2017-09-24T22:12:04.527Z,10.77
2017-09-24T22:14:40.275Z,13.10
2017-09-24T22:17:10.748Z,10.50
2017-09-24T22:19:40.731Z,9.50
2017-09-24T22:22:10.555Z,8.15
2017-09-24T22:24:40.279Z,9.10
2017-09-24T22:27:10.678Z,9.80
2017-09-24T22:29:40.495Z,9.88
2017-09-24T22:32:10.635Z,8.57
2017-09-24T22:34:40.503Z,10.02
2017-09-24T22:37:10.668Z,9.85
2017-09-24T22:39:40.643Z,9.73
2017-09-24T22:42:11.353Z,13.67
2017-09-24T22:44:42.143Z,11.63
2017-09-24T22:47:12.260Z,11.50
2017-09-24T22:49:42.390Z,16.15
2017-09-24T22:52:12.095Z,12.50
2017-09-24T22:54:42.153Z,11.77
2017-09-24T22:57:12.271Z,15.07
2017-09-24T22:59:42.132Z,14.32
2017-09-24T23:02:12.338Z,14.77
2017-09-24T23:04:43.283Z,14.32
2017-09-24T23:07:13.219Z,12.80
2017-09-24T23:09:43.259Z,10.88
2017-09-24T23:12:13.395Z,15.00
2017-09-24T23:14:44.387Z,10.30
2017-09-24T23:17:14.011Z,8.50
2017-09-24T23:19:44.436Z,10.60
2017-09-24T23:22:14.339Z,10.20
2017-09-24T23:24:44.199Z,13.05
2017-09-24T23:27:14.183Z,13.00
2017-09-24T23:29:44.251Z,12.88
2017-09-24T23:32:14.144Z,10.40
2017-09-24T23:34:44.071Z,11.20
2017-09-24T23:37:14.172Z,9.70
2017-09-24T23:39:44.415Z,13.23
2017-09-24T23:42:14.508Z,12.45
2017-09-24T23:44:44.760Z,10.07
2017-09-24T23:47:14.763Z,15.63
2017-09-24T23:49:44.529Z,10.25
2017-09-24T23:52:14.354Z,10.40
2017-09-24T23:54:44.422Z,13.50
2017-09-24T23:57:14.405Z,10.73
2017-09-24T23:59:46.539Z,11.30
